sensor_id;sensor_type;location;lat;lon;timestamp;temperature;humidity
40059;SHT31;25763;49.972;8.568;2023-04-12T00:00:53;10.59;62.04
40059;SHT31;25763;49.972;8.568;2023-04-12T00:03:19;10.59;61.88
40059;SHT31;25763;49.972;8.568;2023-04-12T00:05:46;10.57;61.98
40059;SHT31;25763;49.972;8.568;2023-04-12T00:08:13;10.59;62.26
40059;SHT31;25763;49.972;8.568;2023-04-12T00:10:38;10.58;62.71
40059;SHT31;25763;49.972;8.568;2023-04-12T00:13:04;10.52;62.61
40059;SHT31;25763;49.972;8.568;2023-04-12T00:15:29;10.52;62.81
40059;SHT31;25763;49.972;8.568;2023-04-12T00:17:55;10.52;62.79
40059;SHT31;25763;49.972;8.568;2023-04-12T00:20:20;10.52;62.57
40059;SHT31;25763;49.972;8.568;2023-04-12T00:22:46;10.49;62.62
40059;SHT31;25763;49.972;8.568;2023-04-12T00:25:11;10.48;62.53
40059;SHT31;25763;49.972;8.568;2023-04-12T00:27:36;10.41;62.98
40059;SHT31;25763;49.972;8.568;2023-04-12T00:30:02;10.41;63.55
40059;SHT31;25763;49.972;8.568;2023-04-12T00:32:28;10.37;64.32
40059;SHT31;25763;49.972;8.568;2023-04-12T00:34:53;10.34;65.20
40059;SHT31;25763;49.972;8.568;2023-04-12T00:37:18;10.35;66.23
40059;SHT31;25763;49.972;8.568;2023-04-12T00:39:44;10.23;66.86
40059;SHT31;25763;49.972;8.568;2023-04-12T00:42:10;10.14;67.66
40059;SHT31;25763;49.972;8.568;2023-04-12T00:44:35;10.14;68.44
40059;SHT31;25763;49.972;8.568;2023-04-12T00:47:04;9.96;69.95
40059;SHT31;25763;49.972;8.568;2023-04-12T00:49:32;10.03;69.68
40059;SHT31;25763;49.972;8.568;2023-04-12T00:52:06;9.98;70.38
40059;SHT31;25763;49.972;8.568;2023-04-12T00:54:33;9.98;70.88
40059;SHT31;25763;49.972;8.568;2023-04-12T00:57:02;9.89;71.29
40059;SHT31;25763;49.972;8.568;2023-04-12T00:59:28;9.82;71.67
40059;SHT31;25763;49.972;8.568;2023-04-12T01:01:54;9.79;72.05
40059;SHT31;25763;49.972;8.568;2023-04-12T01:04:20;9.82;72.38
40059;SHT31;25763;49.972;8.568;2023-04-12T01:07:07;9.78;72.52
40059;SHT31;25763;49.972;8.568;2023-04-12T01:10:28;9.83;72.28
40059;SHT31;25763;49.972;8.568;2023-04-12T01:13:04;9.82;73.35
40059;SHT31;25763;49.972;8.568;2023-04-12T01:15:36;9.75;73.51
40059;SHT31;25763;49.972;8.568;2023-04-12T01:18:07;9.81;73.09
40059;SHT31;25763;49.972;8.568;2023-04-12T01:20:40;9.81;73.96
40059;SHT31;25763;49.972;8.568;2023-04-12T01:28:37;9.59;75.98
40059;SHT31;25763;49.972;8.568;2023-04-12T01:31:03;9.62;75.66
40059;SHT31;25763;49.972;8.568;2023-04-12T01:33:33;9.67;75.25
40059;SHT31;25763;49.972;8.568;2023-04-12T01:36:03;9.65;75.87
40059;SHT31;25763;49.972;8.568;2023-04-12T01:38:30;9.64;75.82
40059;SHT31;25763;49.972;8.568;2023-04-12T01:40:56;9.62;76.59
40059;SHT31;25763;49.972;8.568;2023-04-12T01:43:22;9.55;76.74
40059;SHT31;25763;49.972;8.568;2023-04-12T01:45:47;9.58;76.68
40059;SHT31;25763;49.972;8.568;2023-04-12T01:48:13;9.55;76.94
40059;SHT31;25763;49.972;8.568;2023-04-12T01:50:57;9.54;77.20
40059;SHT31;25763;49.972;8.568;2023-04-12T01:56:16;9.51;77.43
40059;SHT31;25763;49.972;8.568;2023-04-12T01:58:43;9.51;77.23
40059;SHT31;25763;49.972;8.568;2023-04-12T02:01:12;9.41;78.28
40059;SHT31;25763;49.972;8.568;2023-04-12T02:03:42;9.44;77.97
40059;SHT31;25763;49.972;8.568;2023-04-12T02:06:09;9.36;78.51
40059;SHT31;25763;49.972;8.568;2023-04-12T02:08:35;9.36;78.35
40059;SHT31;25763;49.972;8.568;2023-04-12T02:11:09;9.23;79.50
40059;SHT31;25763;49.972;8.568;2023-04-12T02:13:35;9.24;79.75
40059;SHT31;25763;49.972;8.568;2023-04-12T02:16:00;9.29;79.41
40059;SHT31;25763;49.972;8.568;2023-04-12T02:18:26;9.18;80.18
40059;SHT31;25763;49.972;8.568;2023-04-12T02:20:53;9.01;81.28
40059;SHT31;25763;49.972;8.568;2023-04-12T02:23:18;9.05;80.65
40059;SHT31;25763;49.972;8.568;2023-04-12T02:25:43;8.97;81.92
40059;SHT31;25763;49.972;8.568;2023-04-12T02:28:11;8.94;81.73
40059;SHT31;25763;49.972;8.568;2023-04-12T02:30:36;8.95;81.50
40059;SHT31;25763;49.972;8.568;2023-04-12T02:33:02;8.94;81.74
40059;SHT31;25763;49.972;8.568;2023-04-12T02:35:30;8.84;82.31
40059;SHT31;25763;49.972;8.568;2023-04-12T02:37:56;8.73;82.77
40059;SHT31;25763;49.972;8.568;2023-04-12T02:40:22;8.70;83.08
40059;SHT31;25763;49.972;8.568;2023-04-12T02:42:47;8.64;83.25
40059;SHT31;25763;49.972;8.568;2023-04-12T02:45:12;8.73;82.69
40059;SHT31;25763;49.972;8.568;2023-04-12T02:47:38;8.56;83.56
40059;SHT31;25763;49.972;8.568;2023-04-12T02:50:05;8.64;83.11
40059;SHT31;25763;49.972;8.568;2023-04-12T02:52:31;8.68;82.79
40059;SHT31;25763;49.972;8.568;2023-04-12T02:54:57;8.59;83.68
40059;SHT31;25763;49.972;8.568;2023-04-12T02:57:23;8.59;83.79
40059;SHT31;25763;49.972;8.568;2023-04-12T02:59:52;8.59;83.78
40059;SHT31;25763;49.972;8.568;2023-04-12T03:02:18;8.61;83.65
40059;SHT31;25763;49.972;8.568;2023-04-12T03:04:44;8.57;83.97
40059;SHT31;25763;49.972;8.568;2023-04-12T03:07:13;8.60;84.27
40059;SHT31;25763;49.972;8.568;2023-04-12T03:09:39;8.47;84.85
40059;SHT31;25763;49.972;8.568;2023-04-12T03:12:07;8.47;85.00
40059;SHT31;25763;49.972;8.568;2023-04-12T03:14:32;8.49;84.81
40059;SHT31;25763;49.972;8.568;2023-04-12T03:16:57;8.46;84.87
40059;SHT31;25763;49.972;8.568;2023-04-12T03:19:23;8.53;84.86
40059;SHT31;25763;49.972;8.568;2023-04-12T03:21:48;8.47;85.05
40059;SHT31;25763;49.972;8.568;2023-04-12T03:24:13;8.57;84.92
40059;SHT31;25763;49.972;8.568;2023-04-12T03:26:39;8.47;85.26
40059;SHT31;25763;49.972;8.568;2023-04-12T03:29:05;8.45;85.49
40059;SHT31;25763;49.972;8.568;2023-04-12T03:31:33;8.52;85.45
40059;SHT31;25763;49.972;8.568;2023-04-12T03:33:59;8.46;85.24
40059;SHT31;25763;49.972;8.568;2023-04-12T03:36:25;8.45;85.52
40059;SHT31;25763;49.972;8.568;2023-04-12T03:38:52;8.36;86.12
40059;SHT31;25763;49.972;8.568;2023-04-12T03:41:17;8.49;85.83
40059;SHT31;25763;49.972;8.568;2023-04-12T03:43:42;8.46;85.73
40059;SHT31;25763;49.972;8.568;2023-04-12T03:46:08;8.45;85.70
40059;SHT31;25763;49.972;8.568;2023-04-12T03:48:33;8.42;85.89
40059;SHT31;25763;49.972;8.568;2023-04-12T03:50:59;8.39;85.98
40059;SHT31;25763;49.972;8.568;2023-04-12T03:53:31;8.38;86.36
40059;SHT31;25763;49.972;8.568;2023-04-12T03:55:57;8.40;86.36
40059;SHT31;25763;49.972;8.568;2023-04-12T03:58:22;8.46;86.20
40059;SHT31;25763;49.972;8.568;2023-04-12T04:00:48;8.49;86.34
40059;SHT31;25763;49.972;8.568;2023-04-12T04:03:14;8.47;86.24
40059;SHT31;25763;49.972;8.568;2023-04-12T04:05:39;8.47;86.18
40059;SHT31;25763;49.972;8.568;2023-04-12T04:08:05;8.50;86.06
40059;SHT31;25763;49.972;8.568;2023-04-12T04:10:32;8.42;86.50
40059;SHT31;25763;49.972;8.568;2023-04-12T04:12:57;8.46;86.36
40059;SHT31;25763;49.972;8.568;2023-04-12T04:15:24;8.50;86.58
40059;SHT31;25763;49.972;8.568;2023-04-12T04:17:50;8.54;86.35
40059;SHT31;25763;49.972;8.568;2023-04-12T04:20:16;8.45;86.54
40059;SHT31;25763;49.972;8.568;2023-04-12T04:22:43;8.49;86.50
40059;SHT31;25763;49.972;8.568;2023-04-12T04:25:09;8.42;86.80
40059;SHT31;25763;49.972;8.568;2023-04-12T04:27:39;8.39;86.87
40059;SHT31;25763;49.972;8.568;2023-04-12T04:30:05;8.39;86.96
40059;SHT31;25763;49.972;8.568;2023-04-12T04:32:31;8.42;87.00
40059;SHT31;25763;49.972;8.568;2023-04-12T04:34:58;8.33;87.19
40059;SHT31;25763;49.972;8.568;2023-04-12T04:37:24;8.26;87.54
40059;SHT31;25763;49.972;8.568;2023-04-12T04:39:50;8.38;87.56
40059;SHT31;25763;49.972;8.568;2023-04-12T04:42:16;8.38;87.61
40059;SHT31;25763;49.972;8.568;2023-04-12T04:44:41;8.42;87.61
40059;SHT31;25763;49.972;8.568;2023-04-12T04:47:06;8.38;87.66
40059;SHT31;25763;49.972;8.568;2023-04-12T04:49:32;8.38;87.68
40059;SHT31;25763;49.972;8.568;2023-04-12T04:51:58;8.38;87.78
40059;SHT31;25763;49.972;8.568;2023-04-12T04:54:23;8.38;87.74
40059;SHT31;25763;49.972;8.568;2023-04-12T04:56:48;8.36;87.80
40059;SHT31;25763;49.972;8.568;2023-04-12T04:59:14;8.40;87.68
40059;SHT31;25763;49.972;8.568;2023-04-12T05:01:41;8.43;87.80
40059;SHT31;25763;49.972;8.568;2023-04-12T05:04:07;8.42;87.56
40059;SHT31;25763;49.972;8.568;2023-04-12T05:06:32;8.36;87.91
40059;SHT31;25763;49.972;8.568;2023-04-12T05:08:58;8.29;87.93
40059;SHT31;25763;49.972;8.568;2023-04-12T05:11:25;8.26;88.18
40059;SHT31;25763;49.972;8.568;2023-04-12T05:13:51;8.32;88.30
40059;SHT31;25763;49.972;8.568;2023-04-12T05:16:16;8.38;88.26
40059;SHT31;25763;49.972;8.568;2023-04-12T05:18:42;8.46;88.02
40059;SHT31;25763;49.972;8.568;2023-04-12T05:21:08;8.38;88.04
40059;SHT31;25763;49.972;8.568;2023-04-12T05:23:41;8.49;87.95
40059;SHT31;25763;49.972;8.568;2023-04-12T05:26:06;8.40;87.94
40059;SHT31;25763;49.972;8.568;2023-04-12T05:28:32;8.36;88.11
40059;SHT31;25763;49.972;8.568;2023-04-12T05:30:57;8.30;88.31
40059;SHT31;25763;49.972;8.568;2023-04-12T05:33:23;8.33;88.46
40059;SHT31;25763;49.972;8.568;2023-04-12T05:35:48;8.28;88.50
40059;SHT31;25763;49.972;8.568;2023-04-12T05:38:13;8.12;88.81
40059;SHT31;25763;49.972;8.568;2023-04-12T05:40:39;8.07;89.17
40059;SHT31;25763;49.972;8.568;2023-04-12T05:43:06;8.08;89.28
40059;SHT31;25763;49.972;8.568;2023-04-12T05:45:31;8.12;89.26
40059;SHT31;25763;49.972;8.568;2023-04-12T05:47:56;8.10;89.20
40059;SHT31;25763;49.972;8.568;2023-04-12T05:50:22;8.18;89.25
40059;SHT31;25763;49.972;8.568;2023-04-12T05:52:49;8.11;89.21
40059;SHT31;25763;49.972;8.568;2023-04-12T05:55:15;8.08;89.09
40059;SHT31;25763;49.972;8.568;2023-04-12T05:57:43;8.14;89.19
40059;SHT31;25763;49.972;8.568;2023-04-12T06:00:09;8.20;89.23
40059;SHT31;25763;49.972;8.568;2023-04-12T06:02:39;8.20;89.12
40059;SHT31;25763;49.972;8.568;2023-04-12T06:05:05;8.17;89.02
40059;SHT31;25763;49.972;8.568;2023-04-12T06:07:30;8.14;88.96
40059;SHT31;25763;49.972;8.568;2023-04-12T06:09:56;8.10;88.98
40059;SHT31;25763;49.972;8.568;2023-04-12T06:12:21;8.17;89.02
40059;SHT31;25763;49.972;8.568;2023-04-12T06:14:46;8.11;88.97
40059;SHT31;25763;49.972;8.568;2023-04-12T06:17:12;8.15;89.00
40059;SHT31;25763;49.972;8.568;2023-04-12T06:19:37;8.22;88.99
40059;SHT31;25763;49.972;8.568;2023-04-12T06:22:03;8.11;88.93
40059;SHT31;25763;49.972;8.568;2023-04-12T06:24:28;8.08;89.03
40059;SHT31;25763;49.972;8.568;2023-04-12T06:26:53;8.14;89.08
40059;SHT31;25763;49.972;8.568;2023-04-12T06:29:19;8.17;89.17
40059;SHT31;25763;49.972;8.568;2023-04-12T06:31:44;8.25;89.09
40059;SHT31;25763;49.972;8.568;2023-04-12T06:34:09;8.36;88.81
40059;SHT31;25763;49.972;8.568;2023-04-12T06:36:35;8.39;88.79
40059;SHT31;25763;49.972;8.568;2023-04-12T06:39:00;8.38;88.87
40059;SHT31;25763;49.972;8.568;2023-04-12T06:41:25;8.36;88.87
40059;SHT31;25763;49.972;8.568;2023-04-12T06:43:51;8.29;88.81
40059;SHT31;25763;49.972;8.568;2023-04-12T06:46:24;8.40;89.01
40059;SHT31;25763;49.972;8.568;2023-04-12T06:48:50;8.54;88.83
40059;SHT31;25763;49.972;8.568;2023-04-12T06:51:15;8.59;88.74
40059;SHT31;25763;49.972;8.568;2023-04-12T06:53:41;8.53;88.55
40059;SHT31;25763;49.972;8.568;2023-04-12T06:56:06;8.63;88.40
40059;SHT31;25763;49.972;8.568;2023-04-12T06:58:32;8.70;88.18
40059;SHT31;25763;49.972;8.568;2023-04-12T07:01:07;8.78;88.15
40059;SHT31;25763;49.972;8.568;2023-04-12T07:03:34;8.74;88.03
40059;SHT31;25763;49.972;8.568;2023-04-12T07:06:00;8.74;87.99
40059;SHT31;25763;49.972;8.568;2023-04-12T07:08:27;8.77;87.83
40059;SHT31;25763;49.972;8.568;2023-04-12T07:10:54;8.80;87.62
40059;SHT31;25763;49.972;8.568;2023-04-12T07:13:19;8.84;87.51
40059;SHT31;25763;49.972;8.568;2023-04-12T07:15:44;8.89;87.46
40059;SHT31;25763;49.972;8.568;2023-04-12T07:18:11;8.95;87.60
40059;SHT31;25763;49.972;8.568;2023-04-12T07:20:36;8.92;87.51
40059;SHT31;25763;49.972;8.568;2023-04-12T07:23:01;8.94;87.56
40059;SHT31;25763;49.972;8.568;2023-04-12T07:25:27;8.95;87.53
40059;SHT31;25763;49.972;8.568;2023-04-12T07:27:52;8.98;87.63
40059;SHT31;25763;49.972;8.568;2023-04-12T07:30:17;8.95;87.73
40059;SHT31;25763;49.972;8.568;2023-04-12T07:32:43;8.99;87.36
40059;SHT31;25763;49.972;8.568;2023-04-12T07:35:08;9.11;87.51
40059;SHT31;25763;49.972;8.568;2023-04-12T07:37:34;9.14;87.58
40059;SHT31;25763;49.972;8.568;2023-04-12T07:40:00;9.11;87.20
40059;SHT31;25763;49.972;8.568;2023-04-12T07:42:26;9.14;87.39
40059;SHT31;25763;49.972;8.568;2023-04-12T07:44:51;9.15;87.33
40059;SHT31;25763;49.972;8.568;2023-04-12T07:47:16;9.23;87.25
40059;SHT31;25763;49.972;8.568;2023-04-12T07:49:41;9.27;87.14
40059;SHT31;25763;49.972;8.568;2023-04-12T07:52:07;9.37;87.09
40059;SHT31;25763;49.972;8.568;2023-04-12T07:54:32;9.41;86.63
40059;SHT31;25763;49.972;8.568;2023-04-12T07:56:59;9.48;86.73
40059;SHT31;25763;49.972;8.568;2023-04-12T07:59:25;9.51;86.57
40059;SHT31;25763;49.972;8.568;2023-04-12T08:01:50;9.58;86.65
40059;SHT31;25763;49.972;8.568;2023-04-12T08:04:15;9.61;86.43
40059;SHT31;25763;49.972;8.568;2023-04-12T08:06:41;9.59;86.70
40059;SHT31;25763;49.972;8.568;2023-04-12T08:09:07;9.64;86.58
40059;SHT31;25763;49.972;8.568;2023-04-12T08:11:32;9.57;86.65
40059;SHT31;25763;49.972;8.568;2023-04-12T08:13:59;9.62;86.61
40059;SHT31;25763;49.972;8.568;2023-04-12T08:16:25;9.68;86.81
40059;SHT31;25763;49.972;8.568;2023-04-12T08:18:51;9.67;86.47
40059;SHT31;25763;49.972;8.568;2023-04-12T08:21:16;9.64;86.53
40059;SHT31;25763;49.972;8.568;2023-04-12T08:23:42;9.67;86.80
40059;SHT31;25763;49.972;8.568;2023-04-12T08:26:08;9.68;86.70
40059;SHT31;25763;49.972;8.568;2023-04-12T08:28:33;9.69;86.68
40059;SHT31;25763;49.972;8.568;2023-04-12T08:30:58;9.69;86.68
40059;SHT31;25763;49.972;8.568;2023-04-12T08:33:24;9.78;86.70
40059;SHT31;25763;49.972;8.568;2023-04-12T08:35:50;9.78;86.85
40059;SHT31;25763;49.972;8.568;2023-04-12T08:38:17;9.86;86.59
40059;SHT31;25763;49.972;8.568;2023-04-12T08:40:42;9.82;86.47
40059;SHT31;25763;49.972;8.568;2023-04-12T08:43:10;9.81;86.44
40059;SHT31;25763;49.972;8.568;2023-04-12T08:45:36;9.91;86.74
40059;SHT31;25763;49.972;8.568;2023-04-12T08:48:03;9.85;86.85
40059;SHT31;25763;49.972;8.568;2023-04-12T08:50:29;9.89;86.66
40059;SHT31;25763;49.972;8.568;2023-04-12T08:52:57;9.91;86.99
40059;SHT31;25763;49.972;8.568;2023-04-12T08:55:22;9.99;87.19
40059;SHT31;25763;49.972;8.568;2023-04-12T08:57:48;10.05;86.93
40059;SHT31;25763;49.972;8.568;2023-04-12T09:00:16;10.02;86.89
40059;SHT31;25763;49.972;8.568;2023-04-12T09:02:42;10.05;86.67
40059;SHT31;25763;49.972;8.568;2023-04-12T09:05:10;10.05;87.04
40059;SHT31;25763;49.972;8.568;2023-04-12T09:07:36;10.12;87.22
40059;SHT31;25763;49.972;8.568;2023-04-12T09:10:02;10.21;87.05
40059;SHT31;25763;49.972;8.568;2023-04-12T09:12:29;10.31;86.77
40059;SHT31;25763;49.972;8.568;2023-04-12T09:15:14;10.31;86.75
40059;SHT31;25763;49.972;8.568;2023-04-12T09:17:41;10.33;86.52
40059;SHT31;25763;49.972;8.568;2023-04-12T09:22:42;10.34;86.51
40059;SHT31;25763;49.972;8.568;2023-04-12T09:25:12;10.38;86.43
40059;SHT31;25763;49.972;8.568;2023-04-12T09:27:48;10.44;86.67
40059;SHT31;25763;49.972;8.568;2023-04-12T09:30:15;10.49;86.54
40059;SHT31;25763;49.972;8.568;2023-04-12T09:32:41;10.44;86.25
40059;SHT31;25763;49.972;8.568;2023-04-12T09:35:07;10.46;86.47
40059;SHT31;25763;49.972;8.568;2023-04-12T09:37:32;10.46;86.61
40059;SHT31;25763;49.972;8.568;2023-04-12T09:40:08;10.55;86.70
40059;SHT31;25763;49.972;8.568;2023-04-12T09:42:34;10.57;86.64
40059;SHT31;25763;49.972;8.568;2023-04-12T09:45:18;10.55;86.48
40059;SHT31;25763;49.972;8.568;2023-04-12T09:47:44;10.59;86.47
40059;SHT31;25763;49.972;8.568;2023-04-12T09:50:19;10.55;86.38
40059;SHT31;25763;49.972;8.568;2023-04-12T09:52:44;10.68;86.77
40059;SHT31;25763;49.972;8.568;2023-04-12T09:55:10;10.75;86.53
40059;SHT31;25763;49.972;8.568;2023-04-12T09:57:40;10.64;86.73
40059;SHT31;25763;49.972;8.568;2023-04-12T10:00:07;10.68;86.38
40059;SHT31;25763;49.972;8.568;2023-04-12T10:02:40;10.79;86.60
40059;SHT31;25763;49.972;8.568;2023-04-12T10:05:06;10.77;86.34
40059;SHT31;25763;49.972;8.568;2023-04-12T10:07:35;10.72;86.08
40059;SHT31;25763;49.972;8.568;2023-04-12T10:10:02;10.69;86.77
40059;SHT31;25763;49.972;8.568;2023-04-12T10:12:28;10.73;86.81
40059;SHT31;25763;49.972;8.568;2023-04-12T10:14:54;10.69;86.57
40059;SHT31;25763;49.972;8.568;2023-04-12T10:17:21;10.65;86.62
40059;SHT31;25763;49.972;8.568;2023-04-12T10:19:51;10.75;86.92
40059;SHT31;25763;49.972;8.568;2023-04-12T10:22:17;10.77;87.03
40059;SHT31;25763;49.972;8.568;2023-04-12T10:24:42;10.76;86.94
40059;SHT31;25763;49.972;8.568;2023-04-12T10:27:08;10.80;86.99
40059;SHT31;25763;49.972;8.568;2023-04-12T10:29:34;10.87;86.97
40059;SHT31;25763;49.972;8.568;2023-04-12T10:34:49;10.93;86.84
40059;SHT31;25763;49.972;8.568;2023-04-12T10:37:14;11.03;87.02
40059;SHT31;25763;49.972;8.568;2023-04-12T10:39:42;10.99;86.61
40059;SHT31;25763;49.972;8.568;2023-04-12T10:42:27;11.07;86.73
40059;SHT31;25763;49.972;8.568;2023-04-12T10:45:39;11.14;86.87
40059;SHT31;25763;49.972;8.568;2023-04-12T10:50:29;11.14;86.47
40059;SHT31;25763;49.972;8.568;2023-04-12T10:55:40;11.17;86.82
40059;SHT31;25763;49.972;8.568;2023-04-12T10:58:07;11.21;86.54
40059;SHT31;25763;49.972;8.568;2023-04-12T11:03:21;11.46;86.50
40059;SHT31;25763;49.972;8.568;2023-04-12T11:06:01;11.52;86.36
40059;SHT31;25763;49.972;8.568;2023-04-12T11:08:27;11.55;85.95
40059;SHT31;25763;49.972;8.568;2023-04-12T11:11:04;11.93;86.31
40059;SHT31;25763;49.972;8.568;2023-04-12T11:13:34;11.77;85.65
40059;SHT31;25763;49.972;8.568;2023-04-12T11:16:04;11.69;85.77
40059;SHT31;25763;49.972;8.568;2023-04-12T11:18:33;11.69;85.81
40059;SHT31;25763;49.972;8.568;2023-04-12T11:21:02;11.70;85.85
40059;SHT31;25763;49.972;8.568;2023-04-12T11:23:30;11.80;85.89
40059;SHT31;25763;49.972;8.568;2023-04-12T11:25:55;11.87;85.78
40059;SHT31;25763;49.972;8.568;2023-04-12T11:28:22;11.98;85.64
40059;SHT31;25763;49.972;8.568;2023-04-12T11:30:57;12.12;85.60
40059;SHT31;25763;49.972;8.568;2023-04-12T11:33:38;12.18;85.22
40059;SHT31;25763;49.972;8.568;2023-04-12T11:36:05;12.15;85.01
40059;SHT31;25763;49.972;8.568;2023-04-12T11:38:32;12.08;85.21
40059;SHT31;25763;49.972;8.568;2023-04-12T11:40:58;12.08;85.15
40059;SHT31;25763;49.972;8.568;2023-04-12T11:43:24;12.17;85.04
40059;SHT31;25763;49.972;8.568;2023-04-12T11:45:55;12.33;84.80
40059;SHT31;25763;49.972;8.568;2023-04-12T11:48:21;12.36;84.59
40059;SHT31;25763;49.972;8.568;2023-04-12T11:50:46;12.45;84.57
40059;SHT31;25763;49.972;8.568;2023-04-12T11:53:12;12.40;84.61
40059;SHT31;25763;49.972;8.568;2023-04-12T11:55:37;12.43;84.70
40059;SHT31;25763;49.972;8.568;2023-04-12T11:58:02;12.53;84.94
40059;SHT31;25763;49.972;8.568;2023-04-12T12:00:28;12.68;84.76
40059;SHT31;25763;49.972;8.568;2023-04-12T12:02:55;12.73;84.54
40059;SHT31;25763;49.972;8.568;2023-04-12T12:05:21;12.65;84.35
40059;SHT31;25763;49.972;8.568;2023-04-12T12:07:47;12.65;84.26
40059;SHT31;25763;49.972;8.568;2023-04-12T12:10:13;12.55;84.49
40059;SHT31;25763;49.972;8.568;2023-04-12T12:12:42;12.50;83.95
40059;SHT31;25763;49.972;8.568;2023-04-12T12:15:07;12.40;84.17
40059;SHT31;25763;49.972;8.568;2023-04-12T12:17:35;12.45;84.34
40059;SHT31;25763;49.972;8.568;2023-04-12T12:20:04;12.53;84.17
40059;SHT31;25763;49.972;8.568;2023-04-12T12:22:29;12.42;84.18
40059;SHT31;25763;49.972;8.568;2023-04-12T12:24:56;12.46;84.13
40059;SHT31;25763;49.972;8.568;2023-04-12T12:27:24;12.47;84.20
40059;SHT31;25763;49.972;8.568;2023-04-12T12:29:50;12.55;84.15
40059;SHT31;25763;49.972;8.568;2023-04-12T12:32:18;12.55;84.19
40059;SHT31;25763;49.972;8.568;2023-04-12T12:34:54;12.59;84.31
40059;SHT31;25763;49.972;8.568;2023-04-12T12:37:24;12.56;84.31
40059;SHT31;25763;49.972;8.568;2023-04-12T12:42:34;12.53;84.85
40059;SHT31;25763;49.972;8.568;2023-04-12T12:45:00;12.53;85.05
40059;SHT31;25763;49.972;8.568;2023-04-12T12:47:28;12.63;84.94
40059;SHT31;25763;49.972;8.568;2023-04-12T12:49:54;12.67;85.12
40059;SHT31;25763;49.972;8.568;2023-04-12T12:52:19;12.67;85.03
40059;SHT31;25763;49.972;8.568;2023-04-12T12:54:44;12.57;85.17
40059;SHT31;25763;49.972;8.568;2023-04-12T12:57:10;12.59;85.51
40059;SHT31;25763;49.972;8.568;2023-04-12T12:59:35;12.60;85.81
40059;SHT31;25763;49.972;8.568;2023-04-12T13:02:01;12.57;85.88
40059;SHT31;25763;49.972;8.568;2023-04-12T13:04:27;12.57;85.86
40059;SHT31;25763;49.972;8.568;2023-04-12T13:06:52;12.50;85.92
40059;SHT31;25763;49.972;8.568;2023-04-12T13:09:18;12.39;86.17
40059;SHT31;25763;49.972;8.568;2023-04-12T13:11:43;12.43;86.63
40059;SHT31;25763;49.972;8.568;2023-04-12T13:14:08;12.40;86.50
40059;SHT31;25763;49.972;8.568;2023-04-12T13:16:34;12.42;86.81
40059;SHT31;25763;49.972;8.568;2023-04-12T13:19:00;12.33;86.86
40059;SHT31;25763;49.972;8.568;2023-04-12T13:21:25;12.32;87.09
40059;SHT31;25763;49.972;8.568;2023-04-12T13:23:51;12.18;87.30
40059;SHT31;25763;49.972;8.568;2023-04-12T13:26:16;12.14;87.23
40059;SHT31;25763;49.972;8.568;2023-04-12T13:28:42;12.09;87.28
40059;SHT31;25763;49.972;8.568;2023-04-12T13:31:07;12.15;87.28
40059;SHT31;25763;49.972;8.568;2023-04-12T13:33:32;12.38;87.48
40059;SHT31;25763;49.972;8.568;2023-04-12T13:35:58;12.61;87.08
40059;SHT31;25763;49.972;8.568;2023-04-12T13:38:23;12.74;86.56
40059;SHT31;25763;49.972;8.568;2023-04-12T13:40:48;12.97;86.32
40059;SHT31;25763;49.972;8.568;2023-04-12T13:43:14;13.12;86.56
40059;SHT31;25763;49.972;8.568;2023-04-12T13:45:39;13.08;85.85
40059;SHT31;25763;49.972;8.568;2023-04-12T13:48:04;13.12;85.78
40059;SHT31;25763;49.972;8.568;2023-04-12T13:50:30;13.15;85.29
40059;SHT31;25763;49.972;8.568;2023-04-12T13:52:55;13.05;84.93
40059;SHT31;25763;49.972;8.568;2023-04-12T13:55:21;12.98;85.40
40059;SHT31;25763;49.972;8.568;2023-04-12T13:57:46;12.91;85.26
40059;SHT31;25763;49.972;8.568;2023-04-12T14:00:12;12.92;85.17
40059;SHT31;25763;49.972;8.568;2023-04-12T14:02:38;12.77;85.18
40059;SHT31;25763;49.972;8.568;2023-04-12T14:05:03;12.68;85.26
40059;SHT31;25763;49.972;8.568;2023-04-12T14:07:29;12.64;85.49
40059;SHT31;25763;49.972;8.568;2023-04-12T14:09:54;12.59;85.45
40059;SHT31;25763;49.972;8.568;2023-04-12T14:12:21;12.53;85.63
40059;SHT31;25763;49.972;8.568;2023-04-12T14:14:47;12.56;85.98
40059;SHT31;25763;49.972;8.568;2023-04-12T14:17:12;12.56;85.77
40059;SHT31;25763;49.972;8.568;2023-04-12T14:19:37;12.63;85.60
40059;SHT31;25763;49.972;8.568;2023-04-12T14:22:03;12.59;85.26
40059;SHT31;25763;49.972;8.568;2023-04-12T14:24:28;12.47;85.39
40059;SHT31;25763;49.972;8.568;2023-04-12T14:26:53;12.43;85.50
40059;SHT31;25763;49.972;8.568;2023-04-12T14:29:20;12.42;84.95
40059;SHT31;25763;49.972;8.568;2023-04-12T14:31:46;12.47;85.10
40059;SHT31;25763;49.972;8.568;2023-04-12T14:34:11;12.46;84.80
40059;SHT31;25763;49.972;8.568;2023-04-12T14:36:37;12.43;84.46
40059;SHT31;25763;49.972;8.568;2023-04-12T14:39:03;12.36;84.18
40059;SHT31;25763;49.972;8.568;2023-04-12T14:41:29;12.25;84.45
40059;SHT31;25763;49.972;8.568;2023-04-12T14:43:55;12.26;84.89
40059;SHT31;25763;49.972;8.568;2023-04-12T14:46:21;12.28;84.69
40059;SHT31;25763;49.972;8.568;2023-04-12T14:48:47;12.22;84.41
40059;SHT31;25763;49.972;8.568;2023-04-12T14:51:12;12.38;84.26
40059;SHT31;25763;49.972;8.568;2023-04-12T14:53:39;12.30;84.04
40059;SHT31;25763;49.972;8.568;2023-04-12T14:56:15;12.32;83.56
40059;SHT31;25763;49.972;8.568;2023-04-12T14:58:40;12.29;83.46
40059;SHT31;25763;49.972;8.568;2023-04-12T15:01:10;12.33;83.47
40059;SHT31;25763;49.972;8.568;2023-04-12T15:03:35;12.39;83.37
40059;SHT31;25763;49.972;8.568;2023-04-12T15:06:00;12.43;83.04
40059;SHT31;25763;49.972;8.568;2023-04-12T15:08:26;12.49;83.00
40059;SHT31;25763;49.972;8.568;2023-04-12T15:10:53;12.50;83.10
40059;SHT31;25763;49.972;8.568;2023-04-12T15:13:18;12.46;83.07
40059;SHT31;25763;49.972;8.568;2023-04-12T15:15:43;12.45;83.28
40059;SHT31;25763;49.972;8.568;2023-04-12T15:18:11;12.45;83.03
40059;SHT31;25763;49.972;8.568;2023-04-12T15:20:36;12.43;83.33
40059;SHT31;25763;49.972;8.568;2023-04-12T15:23:02;12.50;83.05
40059;SHT31;25763;49.972;8.568;2023-04-12T15:25:27;12.68;82.78
40059;SHT31;25763;49.972;8.568;2023-04-12T15:27:54;13.01;82.71
40059;SHT31;25763;49.972;8.568;2023-04-12T15:30:20;13.62;82.12
40059;SHT31;25763;49.972;8.568;2023-04-12T15:32:45;13.65;80.90
40059;SHT31;25763;49.972;8.568;2023-04-12T15:35:11;13.61;80.76
40059;SHT31;25763;49.972;8.568;2023-04-12T15:37:36;13.19;79.74
40059;SHT31;25763;49.972;8.568;2023-04-12T15:40:04;12.99;80.70
40059;SHT31;25763;49.972;8.568;2023-04-12T15:42:39;13.04;80.92
40059;SHT31;25763;49.972;8.568;2023-04-12T15:45:05;12.77;79.68
40059;SHT31;25763;49.972;8.568;2023-04-12T15:47:30;12.87;80.35
40059;SHT31;25763;49.972;8.568;2023-04-12T15:49:56;12.74;79.50
40059;SHT31;25763;49.972;8.568;2023-04-12T15:52:21;12.70;79.05
40059;SHT31;25763;49.972;8.568;2023-04-12T15:54:47;12.73;79.37
40059;SHT31;25763;49.972;8.568;2023-04-12T15:57:12;12.82;79.26
40059;SHT31;25763;49.972;8.568;2023-04-12T15:59:38;12.85;78.33